Time;durP1;ratioP1;P1;durP2;ratioP2;P2;SDS_P1;SDS_P2;PMS_P1;PMS_P2;Temp;Humidity;BMP_temperature;BMP_pressure;BME280_temperature;BME280_humidity;BME280_pressure;Samples;Min_cycle;Max_cycle;Signal;HPM_P1;HPM_P2
2023/05/20 06:26:21;;;;;;;12.80;4.28;;;;;;;13.15;79.82;96615.69;2083202;28;20570;-57
2023/05/20 06:28:31;;;;;;;9.27;5.13;;;;;;;13.47;80.03;96611.31;2082814;28;21396;-57
2023/05/20 06:29:33;;;;;;;6.68;5.03;;;;;;;13.59;80.02;96606.31;2081580;28;20257;-56
2023/05/20 06:31:45;;;;;;;7.88;5.00;;;;;;;13.57;78.98;96600.28;2083433;28;20557;-56
2023/05/20 06:33:59;;;;;;;7.35;4.88;;;;;;;13.65;79.00;96604.16;2089648;27;20954;-57
2023/05/20 06:36:16;;;;;;;9.30;5.32;;;;;;;13.54;78.89;96568.03;2099489;27;20583;-57
2023/05/20 06:37:17;;;;;;;8.80;4.85;;;;;;;13.81;78.84;96605.91;2100710;28;20665;-57
2023/05/20 06:38:19;;;;;;;10.45;5.35;;;;;;;13.94;78.39;96600.75;2093475;28;20205;-57
2023/05/20 06:39:21;;;;;;;6.40;4.28;;;;;;;14.08;77.26;96606.06;2080879;28;20203;-56
2023/05/20 06:40:23;;;;;;;9.48;4.55;;;;;;;14.16;77.28;96597.72;2083140;28;20658;-56
2023/05/20 06:41:25;;;;;;;8.27;4.63;;;;;;;14.28;77.49;96601.38;2082245;28;20282;-56
2023/05/20 06:43:47;;;;;;;7.78;4.57;;;;;;;13.98;78.37;96604.88;2082676;28;20570;-58
2023/05/20 06:44:52;;;;;;;7.05;4.78;;;;;;;13.96;78.52;96599.75;2080780;28;20256;-58
2023/05/20 06:45:54;;;;;;;11.00;5.63;;;;;;;14.11;77.92;96603.25;2080322;28;20199;-58
2023/05/20 06:46:55;;;;;;;9.30;5.25;;;;;;;14.20;77.70;96605.31;2077956;28;20230;-58
2023/05/20 06:47:57;;;;;;;9.02;4.65;;;;;;;14.23;77.47;96600.81;2078130;28;20204;-58
2023/05/20 06:48:59;;;;;;;6.28;4.18;;;;;;;14.39;77.23;96606.00;2077974;28;20218;-58
2023/05/20 06:50:00;;;;;;;8.95;4.97;;;;;;;14.35;77.02;96600.09;2078231;28;20237;-58
2023/05/20 06:51:02;;;;;;;9.45;5.25;;;;;;;14.35;77.34;96600.09;2077827;28;20209;-58
2023/05/20 06:53:06;;;;;;;11.48;4.93;;;;;;;14.54;76.20;96599.81;2080622;28;20913;-56
2023/05/20 06:54:08;;;;;;;6.45;4.95;;;;;;;14.68;76.11;96586.69;2080580;28;20288;-56
2023/05/20 06:55:10;;;;;;;9.82;4.50;;;;;;;14.66;75.84;96592.97;2076743;28;20194;-56
2023/05/20 06:56:11;;;;;;;9.68;5.20;;;;;;;14.83;75.68;96597.16;2076509;28;20196;-56
2023/05/20 06:57:13;;;;;;;7.05;5.35;;;;;;;14.94;75.48;96584.19;2077651;28;20286;-56
2023/05/20 06:58:14;;;;;;;7.88;4.90;;;;;;;15.30;74.45;96590.69;2077880;28;20236;-56
2023/05/20 06:59:16;;;;;;;12.82;4.78;;;;;;;15.02;73.91;96591.63;2077793;28;20605;-56
2023/05/20 07:00:18;;;;;;;8.55;5.28;;;;;;;15.02;74.95;96600.34;2078737;28;20206;-56
2023/05/20 07:01:19;;;;;;;10.48;5.57;;;;;;;14.94;75.24;96593.88;2079262;28;20207;-57
2023/05/20 07:02:21;;;;;;;8.77;5.57;;;;;;;15.13;74.64;96591.75;2077795;28;20203;-56
2023/05/20 07:03:23;;;;;;;9.55;4.75;;;;;;;15.06;74.19;96592.25;2077003;28;20199;-56
2023/05/20 07:04:24;;;;;;;8.38;5.32;;;;;;;15.21;74.29;96598.31;2078204;28;20230;-56
2023/05/20 07:05:27;;;;;;;10.48;5.55;;;;;;;15.23;74.57;96584.13;2078523;28;20214;-56
2023/05/20 07:06:30;;;;;;;10.20;4.95;;;;;;;15.25;73.85;96589.28;2078254;28;20206;-56
2023/05/20 07:07:31;;;;;;;12.82;5.28;;;;;;;15.23;73.32;96593.81;2079630;28;20206;-56
2023/05/20 07:08:33;;;;;;;9.30;4.80;;;;;;;15.09;73.75;96589.44;2079924;28;20708;-56
2023/05/20 07:09:34;;;;;;;8.18;5.28;;;;;;;15.14;73.66;96585.56;2078078;28;20236;-56
2023/05/20 07:10:36;;;;;;;11.40;5.30;;;;;;;15.01;74.30;96589.94;2076052;28;20761;-56
2023/05/20 07:11:37;;;;;;;8.05;5.03;;;;;;;15.06;74.45;96574.72;2078212;28;20200;-56
2023/05/20 07:12:39;;;;;;;7.40;4.53;;;;;;;15.29;74.25;96591.63;2078617;28;20262;-56
2023/05/20 07:13:40;;;;;;;8.45;5.18;;;;;;;15.24;74.47;96572.66;2077677;28;20227;-56
2023/05/20 07:14:42;;;;;;;7.95;4.95;;;;;;;15.32;74.24;96583.53;2076951;28;20200;-56
2023/05/20 07:15:46;;;;;;;7.60;5.13;;;;;;;15.34;74.18;96580.81;2077125;28;20207;-56
2023/05/20 07:16:48;;;;;;;6.97;5.00;;;;;;;15.25;74.44;96576.13;2079944;28;20543;-56
2023/05/20 07:17:50;;;;;;;8.80;5.28;;;;;;;15.23;74.54;96581.50;2080723;28;20203;-56
2023/05/20 07:18:51;;;;;;;7.35;5.20;;;;;;;15.28;74.01;96570.69;2078948;28;20219;-56
2023/05/20 07:19:53;;;;;;;8.68;5.60;;;;;;;15.17;74.82;96576.63;2078863;28;20199;-56
2023/05/20 07:20:55;;;;;;;7.70;5.40;;;;;;;15.19;74.78;96580.84;2078840;28;20203;-56
2023/05/20 07:21:57;;;;;;;11.90;5.60;;;;;;;15.13;74.25;96575.16;2079694;28;20214;-56
2023/05/20 07:22:59;;;;;;;8.35;5.50;;;;;;;15.21;74.04;96579.91;2080958;28;20196;-56
2023/05/20 07:24:01;;;;;;;11.52;5.05;;;;;;;15.08;73.72;96569.34;2080929;28;20311;-56
2023/05/20 07:25:03;;;;;;;10.90;5.93;;;;;;;15.44;73.06;96571.38;2081102;28;20216;-58
2023/05/20 07:26:04;;;;;;;9.52;5.70;;;;;;;15.57;72.99;96571.41;2079452;28;20203;-58
2023/05/20 07:27:07;;;;;;;7.22;5.05;;;;;;;15.30;73.58;96564.38;2079458;28;20233;-58
2023/05/20 07:28:08;;;;;;;7.28;5.00;;;;;;;15.22;74.67;96564.03;2075925;28;20200;-58
2023/05/20 07:29:10;;;;;;;10.68;5.60;;;;;;;15.08;75.09;96564.09;2076994;28;20201;-58
2023/05/20 07:30:11;;;;;;;9.40;6.10;;;;;;;15.35;74.68;96567.56;2078010;28;20254;-58
2023/05/20 07:31:13;;;;;;;11.23;5.07;;;;;;;15.31;74.32;96563.44;2078344;28;20199;-59
2023/05/20 07:32:15;;;;;;;8.93;5.57;;;;;;;15.44;73.91;96567.88;2077301;28;20950;-58
2023/05/20 07:33:17;;;;;;;8.50;5.72;;;;;;;15.34;73.08;96563.22;2075018;28;20210;-58
2023/05/20 07:34:19;;;;;;;9.55;6.18;;;;;;;15.45;73.26;96562.56;2079189;28;20195;-58
2023/05/20 07:35:20;;;;;;;9.60;6.32;;;;;;;15.23;74.09;96570.16;2079335;28;20261;-58
2023/05/20 07:36:22;;;;;;;8.73;5.30;;;;;;;15.54;73.95;96563.72;2079041;28;20431;-58
2023/05/20 07:37:24;;;;;;;13.13;6.07;;;;;;;15.77;73.02;96561.34;2079395;28;20204;-58
2023/05/20 07:38:25;;;;;;;12.43;5.80;;;;;;;15.34;74.43;96563.22;2074364;28;20277;-59
2023/05/20 07:39:28;;;;;;;8.60;5.40;;;;;;;15.67;74.02;96569.84;2079207;28;20933;-58
2023/05/20 07:40:29;;;;;;;11.57;5.55;;;;;;;15.82;73.19;96561.91;2078163;28;20200;-58
2023/05/20 07:41:31;;;;;;;7.65;5.57;;;;;;;15.93;72.90;96566.47;2078205;28;20319;-59
2023/05/20 07:42:33;;;;;;;8.50;5.32;;;;;;;15.70;73.42;96565.34;2078299;28;20200;-58
2023/05/20 07:43:34;;;;;;;14.27;6.00;;;;;;;15.65;73.15;96568.28;2077385;28;20698;-58
2023/05/20 07:44:36;;;;;;;12.13;6.10;;;;;;;15.71;73.33;96559.97;2075857;28;20232;-58
2023/05/20 07:45:37;;;;;;;11.15;5.90;;;;;;;15.74;73.55;96561.56;2075737;28;20202;-58
2023/05/20 07:46:40;;;;;;;9.98;6.57;;;;;;;15.80;72.77;96559.34;2077715;28;20621;-58
2023/05/20 07:47:42;;;;;;;8.48;6.53;;;;;;;15.72;72.11;96564.28;2078417;28;20318;-58
2023/05/20 07:48:44;;;;;;;8.10;5.63;;;;;;;15.61;72.75;96569.44;2077957;28;20252;-58
2023/05/20 07:49:45;;;;;;;13.60;5.60;;;;;;;15.86;72.74;96567.81;2078726;28;20207;-58
2023/05/20 07:50:47;;;;;;;9.57;5.43;;;;;;;15.92;72.63;96559.50;2079547;28;20255;-58
2023/05/20 07:51:48;;;;;;;9.23;5.60;;;;;;;15.98;71.90;96559.09;2078940;28;20196;-58
2023/05/20 07:52:50;;;;;;;11.73;5.68;;;;;;;15.95;71.43;96556.69;2078422;28;20287;-58
2023/05/20 07:53:57;;;;;;;8.57;5.68;;;;;;;15.82;71.12;96559.25;2075923;28;20232;-58
2023/05/20 07:54:58;;;;;;;11.60;6.25;;;;;;;16.04;70.92;96542.88;2079736;28;20602;-58
2023/05/20 07:56:00;;;;;;;8.73;5.53;;;;;;;16.03;71.02;96550.88;2077409;28;20227;-58
2023/05/20 07:57:01;;;;;;;9.27;5.28;;;;;;;16.25;71.10;96550.25;2078136;28;20203;-58
2023/05/20 07:58:03;;;;;;;8.73;5.88;;;;;;;16.28;71.21;96548.25;2078217;28;20332;-58
2023/05/20 07:59:04;;;;;;;9.30;5.03;;;;;;;16.28;70.94;96560.59;2078862;28;20228;-58
2023/05/20 08:00:08;;;;;;;10.20;5.85;;;;;;;16.00;71.91;96554.56;2079591;28;20204;-58
2023/05/20 08:01:16;;;;;;;8.95;5.75;;;;;;;16.15;71.48;96548.25;2079598;28;20274;-58
2023/05/20 08:02:17;;;;;;;10.23;5.75;;;;;;;16.09;71.36;96555.72;2079120;28;20684;-59
2023/05/20 08:03:21;;;;;;;12.60;6.22;;;;;;;16.03;71.62;96551.72;2077641;28;20667;-59
2023/05/20 08:04:22;;;;;;;20.85;6.07;;;;;;;15.99;71.71;96548.44;2073715;28;20196;-59
2023/05/20 08:05:24;;;;;;;8.60;6.30;;;;;;;16.00;71.25;96551.94;2073027;28;20201;-59
2023/05/20 08:06:26;;;;;;;9.15;5.38;;;;;;;16.16;71.14;96541.19;2072689;28;20611;-58
2023/05/20 08:07:30;;;;;;;11.70;5.97;;;;;;;16.33;70.45;96540.03;2074092;28;20205;-58
2023/05/20 08:08:32;;;;;;;9.15;6.45;;;;;;;16.81;69.90;96544.56;2074327;28;20278;-57
2023/05/20 08:09:33;;;;;;;10.00;6.10;;;;;;;17.19;69.68;96548.06;2075568;28;20198;-57
2023/05/20 08:10:35;;;;;;;10.70;5.85;;;;;;;17.44;69.43;96544.47;2073537;28;21010;-57
2023/05/20 08:11:37;;;;;;;7.53;5.10;;;;;;;17.39;69.47;96544.78;2072266;28;20239;-56
2023/05/20 08:12:38;;;;;;;10.93;6.03;;;;;;;17.25;68.61;96543.16;2073308;28;21128;-57
2023/05/20 08:13:40;;;;;;;14.90;5.43;;;;;;;17.19;69.05;96550.69;2072841;28;20238;-57
2023/05/20 08:14:42;;;;;;;12.70;5.70;;;;;;;17.13;69.10;96544.09;2073839;28;20290;-57
2023/05/20 08:15:44;;;;;;;8.15;5.40;;;;;;;17.07;69.01;96549.81;2071368;28;20208;-57
2023/05/20 08:16:46;;;;;;;10.35;5.65;;;;;;;16.85;69.12;96539.91;2071411;28;20639;-57
2023/05/20 08:17:47;;;;;;;7.15;5.45;;;;;;;16.43;70.01;96541.06;2070822;28;20200;-58
2023/05/20 08:18:48;;;;;;;8.00;5.30;;;;;;;16.74;69.41;96536.25;2073129;28;20726;-57
2023/05/20 08:19:50;;;;;;;8.00;5.10;;;;;;;17.10;68.80;96542.50;2074543;28;20302;-57
2023/05/20 08:20:51;;;;;;;14.70;5.50;;;;;;;17.67;68.11;96537.47;2072972;28;20201;-57
2023/05/20 08:21:53;;;;;;;10.55;5.13;;;;;;;17.39;65.35;96536.88;2073220;28;20253;-57
2023/05/20 08:22:54;;;;;;;8.60;5.40;;;;;;;17.53;67.75;96540.31;2073565;28;20708;-57
2023/05/20 08:23:56;;;;;;;7.43;5.65;;;;;;;18.04;66.25;96536.50;2071126;28;21121;-57
2023/05/20 08:24:58;;;;;;;8.20;5.35;;;;;;;18.46;66.11;96538.59;2073598;28;20198;-57
2023/05/20 08:26:02;;;;;;;10.82;5.78;;;;;;;18.67;65.59;96536.88;2072340;28;20685;-57
2023/05/20 08:27:04;;;;;;;8.48;5.55;;;;;;;18.44;65.87;96534.25;2070035;28;20653;-57
2023/05/20 08:28:06;;;;;;;8.73;5.60;;;;;;;18.09;66.52;96543.13;2069861;28;20205;-58
2023/05/20 08:29:07;;;;;;;8.25;5.28;;;;;;;18.55;66.04;96538.72;2072828;28;20288;-57
2023/05/20 08:30:09;;;;;;;7.68;5.50;;;;;;;18.24;66.34;96533.16;2075909;28;20194;-57
2023/05/20 08:31:11;;;;;;;7.15;4.47;;;;;;;18.32;64.71;96531.72;2075355;28;20197;-57
2023/05/20 08:32:12;;;;;;;6.70;5.53;;;;;;;18.40;65.91;96538.09;2073147;28;20198;-58
2023/05/20 08:33:14;;;;;;;9.13;5.60;;;;;;;17.96;66.65;96534.44;2072527;28;20212;-58
2023/05/20 08:34:16;;;;;;;9.43;5.95;;;;;;;18.30;66.58;96545.06;2073105;28;20202;-57
2023/05/20 08:35:17;;;;;;;12.27;5.15;;;;;;;18.67;65.78;96550.13;2072794;28;20453;-58
2023/05/20 08:36:18;;;;;;;9.88;6.65;;;;;;;18.41;65.46;96550.38;2072385;28;20202;-58
2023/05/20 08:37:20;;;;;;;10.48;6.93;;;;;;;18.21;66.37;96551.06;2073042;28;20209;-57
2023/05/20 08:38:21;;;;;;;9.35;5.35;;;;;;;18.41;66.04;96555.66;2072999;28;20206;-57
2023/05/20 08:39:24;;;;;;;8.30;5.50;;;;;;;18.63;65.74;96551.31;2073392;28;20297;-57
2023/05/20 08:40:26;;;;;;;8.07;5.38;;;;;;;18.73;65.12;96552.28;2072249;28;20213;-57
2023/05/20 08:41:28;;;;;;;9.65;5.40;;;;;;;17.63;65.05;96551.84;2073516;28;20198;-58
2023/05/20 08:42:29;;;;;;;7.88;5.05;;;;;;;17.95;64.30;96549.47;2072749;28;20212;-57
2023/05/20 08:43:31;;;;;;;9.20;5.53;;;;;;;17.80;65.32;96550.56;2072564;28;20225;-58
2023/05/20 08:44:34;;;;;;;13.27;6.40;;;;;;;17.94;65.16;96549.56;2073819;28;20252;-58
2023/05/20 08:45:37;;;;;;;8.98;5.57;;;;;;;18.09;64.91;96559.00;2072002;28;20649;-57
2023/05/20 08:46:40;;;;;;;7.03;5.13;;;;;;;18.05;64.79;96554.03;2073390;28;20656;-57
2023/05/20 08:47:42;;;;;;;10.18;5.57;;;;;;;17.97;65.06;96557.28;2073068;28;20206;-58
2023/05/20 08:48:44;;;;;;;13.35;5.75;;;;;;;17.61;64.60;96557.25;2071586;28;20233;-58
2023/05/20 08:49:47;;;;;;;8.40;5.07;;;;;;;17.50;65.22;96561.66;2071957;28;20213;-58
2023/05/20 08:50:50;;;;;;;9.00;5.50;;;;;;;17.52;66.13;96554.44;2072076;28;20784;-58
2023/05/20 08:51:52;;;;;;;10.07;5.35;;;;;;;17.32;65.97;96550.63;2074185;28;21241;-58
2023/05/20 08:52:54;;;;;;;11.70;5.60;;;;;;;17.51;65.22;96561.53;2072560;28;20240;-58
2023/05/20 08:53:55;;;;;;;11.05;6.25;;;;;;;17.12;65.43;96560.88;2073825;28;20307;-58
2023/05/20 08:54:57;;;;;;;7.63;5.00;;;;;;;17.16;66.38;96569.41;2073325;28;20618;-58
2023/05/20 08:56:01;;;;;;;13.32;6.00;;;;;;;16.80;65.23;96567.47;2073053;28;20206;-58
2023/05/20 08:57:04;;;;;;;9.98;6.10;;;;;;;16.43;66.76;96556.00;2072275;28;20205;-57
2023/05/20 08:58:05;;;;;;;6.90;5.10;;;;;;;16.54;66.50;96564.00;2071122;28;20628;-58
2023/05/20 08:59:08;;;;;;;8.35;4.90;;;;;;;16.49;67.40;96555.59;2072173;28;20198;-58
2023/05/20 09:00:12;;;;;;;8.73;5.65;;;;;;;16.41;67.23;96556.13;2072525;28;20250;-57
2023/05/20 09:01:13;;;;;;;11.13;6.28;;;;;;;16.55;67.76;96564.88;2072152;28;20201;-57
2023/05/20 09:02:16;;;;;;;8.70;5.22;;;;;;;16.60;67.56;96554.84;2071517;28;20248;-57
2023/05/20 09:03:19;;;;;;;9.30;6.28;;;;;;;16.86;67.28;96558.28;2074762;28;20225;-57
2023/05/20 09:04:20;;;;;;;11.55;5.72;;;;;;;17.05;66.83;96559.63;2073026;28;20329;-58
2023/05/20 09:05:22;;;;;;;8.15;5.72;;;;;;;17.24;65.26;96549.44;2073272;28;20212;-58
2023/05/20 09:06:23;;;;;;;9.73;5.65;;;;;;;17.30;65.03;96559.50;2071218;28;20296;-57
2023/05/20 09:07:27;;;;;;;10.27;5.93;;;;;;;17.15;65.61;96563.25;2071257;28;20201;-58
2023/05/20 09:08:30;;;;;;;10.88;5.85;;;;;;;16.79;66.49;96565.75;2074087;28;20232;-57
2023/05/20 09:09:33;;;;;;;8.32;5.43;;;;;;;16.58;67.38;96557.59;2075266;28;20671;-57
2023/05/20 09:10:37;;;;;;;9.18;5.38;;;;;;;16.89;66.97;96562.50;2075128;28;20688;-57
2023/05/20 09:11:40;;;;;;;13.07;7.45;;;;;;;17.19;66.52;96554.19;2073625;28;20244;-57
2023/05/20 09:12:41;;;;;;;13.27;6.70;;;;;;;16.89;66.10;96558.06;2072753;28;20347;-57
2023/05/20 09:13:43;;;;;;;11.05;5.63;;;;;;;17.46;65.52;96561.03;2071205;28;20225;-57
2023/05/20 09:14:44;;;;;;;8.45;5.40;;;;;;;17.87;63.80;96554.44;2071372;28;20200;-57
2023/05/20 09:15:46;;;;;;;13.63;5.95;;;;;;;18.06;64.26;96550.44;2071317;28;20304;-56
2023/05/20 09:16:48;;;;;;;12.65;5.90;;;;;;;18.41;63.53;96549.50;2071481;28;20206;-56
2023/05/20 09:17:49;;;;;;;11.27;5.80;;;;;;;18.53;61.73;96555.66;2070875;28;20599;-57
2023/05/20 09:18:54;;;;;;;8.60;5.18;;;;;;;18.71;62.19;96556.84;2069609;28;20224;-57
2023/05/20 09:19:56;;;;;;;10.95;5.00;;;;;;;19.19;61.20;96552.25;2071681;28;20234;-57
2023/05/20 09:21:04;;;;;;;8.60;5.43;;;;;;;19.51;62.33;96552.25;2071527;28;20343;-57
2023/05/20 09:22:06;;;;;;;9.27;4.97;;;;;;;20.00;61.33;96541.22;2070692;28;20277;-57
2023/05/20 09:23:09;;;;;;;8.65;5.88;;;;;;;19.93;61.76;96542.69;2069652;28;20194;-57
2023/05/20 09:24:10;;;;;;;12.50;5.43;;;;;;;19.98;61.47;96532.53;2069716;28;20195;-56
2023/05/20 09:25:13;;;;;;;9.80;5.05;;;;;;;19.90;60.90;96541.16;2072232;28;20229;-57
2023/05/20 09:26:16;;;;;;;8.40;5.85;;;;;;;19.68;61.59;96532.31;2071527;28;20657;-57
2023/05/20 09:27:19;;;;;;;10.90;5.28;;;;;;;19.43;60.90;96536.16;2070771;28;20198;-57
2023/05/20 09:28:23;;;;;;;10.52;6.43;;;;;;;19.55;60.72;96548.38;2072127;28;20691;-57
2023/05/20 09:29:25;;;;;;;12.57;5.72;;;;;;;19.51;61.53;96538.16;2072169;28;20240;-57
2023/05/20 09:30:27;;;;;;;8.02;5.40;;;;;;;19.82;62.01;96541.78;2072287;28;20217;-57
2023/05/20 09:31:32;;;;;;;8.15;5.70;;;;;;;19.70;60.99;96535.66;2072141;28;20202;-57
2023/05/20 09:32:34;;;;;;;8.90;5.40;;;;;;;19.49;61.89;96535.66;2072037;28;20675;-57
2023/05/20 09:33:36;;;;;;;15.82;5.50;;;;;;;19.46;63.21;96540.34;2072135;28;20232;-57
2023/05/20 09:34:37;;;;;;;15.07;6.25;;;;;;;19.39;63.33;96537.38;2071144;28;20264;-57
2023/05/20 09:35:39;;;;;;;10.00;5.18;;;;;;;19.20;63.39;96544.16;2071288;28;20194;-57
2023/05/20 09:36:42;;;;;;;7.43;4.57;;;;;;;19.09;63.48;96523.84;2071734;28;20198;-57
2023/05/20 09:37:46;;;;;;;8.00;5.47;;;;;;;19.21;62.65;96526.47;2072872;28;20233;-57
2023/05/20 09:38:51;;;;;;;8.50;6.00;;;;;;;19.45;62.93;96533.38;2073161;28;20228;-57
2023/05/20 09:39:58;;;;;;;6.82;4.82;;;;;;;19.56;62.16;96533.31;2073166;28;20247;-57
2023/05/20 09:41:06;;;;;;;6.15;4.90;;;;;;;19.27;62.78;96528.63;2072339;28;20210;-57
2023/05/20 09:42:17;;;;;;;8.45;6.07;;;;;;;19.20;62.40;96532.75;2071253;28;20209;-57
2023/05/20 09:43:19;;;;;;;8.18;5.43;;;;;;;19.21;62.52;96522.03;2072067;28;20229;-57
2023/05/20 09:44:21;;;;;;;7.57;5.40;;;;;;;19.41;62.15;96524.84;2070902;28;20883;-57
2023/05/20 09:45:23;;;;;;;9.98;5.40;;;;;;;19.64;61.68;96516.78;2070963;28;20604;-57
2023/05/20 09:46:26;;;;;;;10.77;5.50;;;;;;;19.56;61.48;96520.91;2071863;28;20193;-57
2023/05/20 09:47:29;;;;;;;9.82;5.90;;;;;;;19.24;63.13;96524.41;2070948;28;20209;-57
2023/05/20 09:48:31;;;;;;;6.45;5.32;;;;;;;19.49;62.71;96527.72;2073174;28;20221;-57
2023/05/20 09:49:35;;;;;;;9.40;5.63;;;;;;;19.53;63.05;96523.00;2073853;28;20232;-57
2023/05/20 09:50:38;;;;;;;10.25;5.57;;;;;;;19.65;61.96;96526.44;2070865;28;20217;-57
2023/05/20 09:51:40;;;;;;;10.05;5.40;;;;;;;19.73;61.91;96530.13;2072282;28;20553;-57
2023/05/20 09:52:43;;;;;;;10.82;5.40;;;;;;;19.56;61.23;96502.38;2069383;28;20605;-57
2023/05/20 09:53:44;;;;;;;9.90;6.07;;;;;;;19.70;61.73;96519.75;2069563;28;20682;-57
2023/05/20 09:54:47;;;;;;;9.40;6.20;;;;;;;19.86;60.86;96519.38;2070219;28;20848;-57
2023/05/20 09:55:51;;;;;;;7.00;5.18;;;;;;;19.80;61.78;96524.31;2071317;28;20675;-57
2023/05/20 09:56:53;;;;;;;7.65;4.97;;;;;;;19.48;61.53;96522.53;2070775;28;20281;-57
2023/05/20 09:57:55;;;;;;;10.55;5.78;;;;;;;19.45;61.99;96526.25;2072424;28;20293;-57
2023/05/20 09:58:57;;;;;;;10.38;5.40;;;;;;;19.81;61.36;96521.53;2071639;28;20226;-57
2023/05/20 10:00:00;;;;;;;9.43;5.82;;;;;;;19.72;61.56;96525.78;2071727;28;20247;-57
2023/05/20 10:01:02;;;;;;;8.27;6.07;;;;;;;19.33;62.19;96528.13;2073217;28;20289;-57
2023/05/20 10:02:05;;;;;;;10.98;5.00;;;;;;;19.38;62.97;96515.34;2074269;28;20577;-57
2023/05/20 10:03:07;;;;;;;6.55;4.95;;;;;;;19.46;61.67;96527.13;2074227;28;20565;-57
2023/05/20 10:04:12;;;;;;;8.77;5.75;;;;;;;19.84;61.12;96520.47;2072092;28;20206;-57
2023/05/20 10:05:20;;;;;;;8.63;6.05;;;;;;;19.56;61.36;96526.22;2072129;28;20198;-57
2023/05/20 10:06:39;;;;;;;6.65;4.40;;;;;;;19.97;59.97;96520.25;2070646;28;20298;-57
2023/05/20 10:07:41;;;;;;;8.75;5.50;;;;;;;19.92;58.77;96517.16;2071634;28;20194;-57
2023/05/20 10:09:01;;;;;;;10.20;5.25;;;;;;;20.04;60.27;96518.78;2071576;28;20218;-57
2023/05/20 10:10:32;;;;;;;9.90;6.05;;;;;;;20.11;60.34;96516.44;2065359;28;20207;-56
2023/05/20 10:11:51;;;;;;;9.02;5.18;;;;;;;20.49;59.89;96518.44;2069081;28;20672;-57
2023/05/20 10:13:07;;;;;;;10.43;6.15;;;;;;;20.71;59.05;96506.81;2069493;28;20224;-57
2023/05/20 10:14:21;;;;;;;10.82;5.20;;;;;;;20.79;59.33;96519.41;2071559;28;20201;-57
2023/05/20 10:15:54;;;;;;;8.90;5.15;;;;;;;20.79;59.38;96508.78;2073457;28;20681;-57
2023/05/20 10:17:23;;;;;;;6.38;4.40;;;;;;;21.27;57.09;96509.00;2068665;28;20301;-57
2023/05/20 10:18:24;;;;;;;8.18;5.28;;;;;;;21.31;56.65;96505.94;2067343;28;20225;-57
2023/05/20 10:19:29;;;;;;;7.68;4.70;;;;;;;21.52;56.43;96507.59;2071924;28;20293;-57
2023/05/20 10:20:31;;;;;;;6.13;5.05;;;;;;;20.49;57.87;96506.97;2072597;28;20194;-57
2023/05/20 10:21:33;;;;;;;12.68;5.53;;;;;;;20.68;58.44;96509.72;2071309;28;20197;-57
2023/05/20 10:22:34;;;;;;;6.45;4.82;;;;;;;20.88;58.36;96512.44;2072655;28;20667;-57
2023/05/20 10:23:36;;;;;;;8.88;5.20;;;;;;;20.84;59.01;96519.00;2071450;28;20226;-57
2023/05/20 10:24:40;;;;;;;7.38;4.50;;;;;;;20.80;58.23;96509.66;2071282;28;20252;-57
2023/05/20 10:25:53;;;;;;;9.57;4.70;;;;;;;20.64;58.25;96518.91;2071715;28;20203;-57
2023/05/20 10:26:54;;;;;;;5.85;4.15;;;;;;;20.78;57.59;96514.25;2071140;28;20190;-57
2023/05/20 10:28:08;;;;;;;7.93;4.20;;;;;;;20.94;57.11;96506.59;2072144;28;20227;-57
2023/05/20 10:29:21;;;;;;;6.53;4.43;;;;;;;20.93;57.56;96496.94;2073051;28;20243;-57
2023/05/20 10:30:23;;;;;;;10.20;4.63;;;;;;;20.88;57.18;96499.19;2073408;28;20630;-57
2023/05/20 10:31:24;;;;;;;6.75;5.40;;;;;;;21.19;56.92;96497.28;2073391;28;20658;-57
2023/05/20 10:32:29;;;;;;;7.30;4.85;;;;;;;21.71;55.44;96496.16;2072003;28;20639;-57
2023/05/20 10:33:41;;;;;;;6.13;4.75;;;;;;;21.31;56.91;96497.97;2070408;28;20279;-57
2023/05/20 10:34:49;;;;;;;9.05;4.82;;;;;;;21.20;57.46;96498.97;2071005;28;20241;-57
2023/05/20 10:35:51;;;;;;;12.27;4.88;;;;;;;20.53;55.66;96497.78;2071156;28;20719;-57
2023/05/20 10:36:52;;;;;;;8.02;5.22;;;;;;;20.19;57.79;96500.72;2071286;28;20209;-57
2023/05/20 10:38:06;;;;;;;7.68;5.30;;;;;;;20.43;57.55;96500.41;2073363;28;20280;-58
2023/05/20 10:39:17;;;;;;;6.93;4.90;;;;;;;20.60;57.81;96492.78;2070313;28;20352;-57
2023/05/20 10:40:20;;;;;;;7.10;4.75;;;;;;;20.66;58.17;96494.91;2074792;28;20773;-57
2023/05/20 10:41:26;;;;;;;7.93;4.85;;;;;;;20.36;59.10;96497.44;2074941;28;20202;-57
2023/05/20 10:42:31;;;;;;;7.70;4.95;;;;;;;20.35;58.75;96492.28;2072496;28;20206;-57
2023/05/20 10:43:32;;;;;;;5.85;4.60;;;;;;;20.46;58.80;96496.66;2070988;28;20664;-57
2023/05/20 10:44:44;;;;;;;8.93;5.30;;;;;;;20.78;57.69;96490.34;2070654;28;20288;-57
2023/05/20 10:45:50;;;;;;;9.98;5.18;;;;;;;20.63;57.04;96490.72;2071226;28;20252;-57
2023/05/20 10:47:02;;;;;;;8.23;5.53;;;;;;;21.19;56.84;96494.63;2073587;28;20204;-57
2023/05/20 10:48:27;;;;;;;10.25;4.93;;;;;;;21.96;56.40;96491.25;2074081;28;20205;-57
2023/05/20 10:49:34;;;;;;;7.40;4.95;;;;;;;21.35;56.16;96486.09;2071314;28;20198;-58
2023/05/20 10:50:37;;;;;;;6.85;4.40;;;;;;;21.71;55.94;96487.38;2073855;28;20239;-58
2023/05/20 10:51:38;;;;;;;4.78;3.72;;;;;;;22.13;54.97;96486.97;2073844;28;20197;-58
2023/05/20 10:52:40;;;;;;;14.20;5.10;;;;;;;20.88;55.34;96489.38;2070421;28;20296;-58
2023/05/20 10:53:45;;;;;;;6.13;4.78;;;;;;;20.96;55.40;96472.81;2072010;28;20276;-58
2023/05/20 10:54:56;;;;;;;7.90;4.70;;;;;;;20.94;55.71;96488.03;2070932;28;20257;-57
2023/05/20 10:55:58;;;;;;;9.15;4.30;;;;;;;21.93;55.29;96483.53;2073535;28;20202;-58
2023/05/20 10:57:05;;;;;;;6.72;4.53;;;;;;;22.12;54.46;96488.00;2071735;28;20201;-58
2023/05/20 10:58:06;;;;;;;9.13;4.70;;;;;;;22.49;54.19;96482.69;2070608;28;20251;-59
2023/05/20 10:59:08;;;;;;;8.18;4.20;;;;;;;22.39;53.96;96481.88;2071198;28;20260;-58
2023/05/20 11:00:11;;;;;;;7.35;4.38;;;;;;;22.26;53.63;96484.84;2069798;28;20236;-58
2023/05/20 11:01:15;;;;;;;7.47;4.70;;;;;;;22.74;52.05;96476.81;2070481;28;20186;-58
2023/05/20 11:02:18;;;;;;;7.57;4.88;;;;;;;22.13;52.03;96471.88;2069996;28;20202;-58
2023/05/20 11:03:23;;;;;;;6.50;4.65;;;;;;;21.77;53.81;96481.47;2068962;28;20198;-58
2023/05/20 11:04:27;;;;;;;10.27;4.75;;;;;;;22.05;53.15;96484.22;2072052;28;20205;-58
2023/05/20 11:05:30;;;;;;;8.75;4.00;;;;;;;21.82;53.66;96484.56;2068518;28;20264;-58
2023/05/20 11:06:33;;;;;;;7.95;4.38;;;;;;;21.78;54.32;96483.16;2065071;28;20244;-58
2023/05/20 11:07:34;;;;;;;10.10;5.13;;;;;;;21.30;54.30;96468.91;2065341;28;20202;-58
2023/05/20 11:08:35;;;;;;;11.55;5.10;;;;;;;21.25;55.12;96479.09;2070814;28;20260;-58
2023/05/20 11:09:37;;;;;;;6.55;4.47;;;;;;;21.26;56.11;96478.13;2071228;28;20202;-59
2023/05/20 11:10:41;;;;;;;6.18;4.75;;;;;;;20.95;57.19;96467.63;2071980;28;20199;-57
2023/05/20 11:11:42;;;;;;;10.27;5.25;;;;;;;21.33;56.49;96480.09;2072660;28;20298;-58
2023/05/20 11:12:44;;;;;;;9.13;4.82;;;;;;;21.74;56.00;96482.59;2071865;28;20201;-57
2023/05/20 11:13:50;;;;;;;6.03;4.60;;;;;;;21.67;55.83;96473.53;2071166;28;20214;-57
2023/05/20 11:14:52;;;;;;;7.03;4.90;;;;;;;21.31;56.68;96476.72;2070904;28;20224;-58
2023/05/20 11:15:54;;;;;;;9.65;5.07;;;;;;;21.30;56.78;96472.38;2071530;28;20202;-59
2023/05/20 11:16:57;;;;;;;7.43;4.82;;;;;;;20.98;55.89;96465.53;2071483;28;20256;-58
2023/05/20 11:18:03;;;;;;;7.72;5.18;;;;;;;21.22;56.18;96464.28;2071543;28;20282;-59
2023/05/20 11:19:14;;;;;;;6.20;4.22;;;;;;;21.71;55.16;96463.44;2076735;28;20249;-59
2023/05/20 11:20:15;;;;;;;6.68;5.05;;;;;;;21.96;54.39;96462.81;2076430;28;20194;-58
2023/05/20 11:21:18;;;;;;;10.23;4.80;;;;;;;21.79;54.88;96456.44;2070139;28;20822;-58
2023/05/20 11:22:20;;;;;;;6.22;4.90;;;;;;;21.99;54.26;96451.94;2071020;28;20289;-58
2023/05/20 11:23:22;;;;;;;8.32;4.22;;;;;;;22.34;53.85;96452.22;2070400;28;20213;-58
2023/05/20 11:24:26;;;;;;;7.60;4.88;;;;;;;22.41;54.41;96457.81;2071413;28;20209;-57
2023/05/20 11:25:27;;;;;;;7.15;5.55;;;;;;;22.33;53.89;96456.69;2071336;28;20616;-57
2023/05/20 11:26:30;;;;;;;10.77;4.63;;;;;;;22.54;53.64;96452.13;2072020;28;20209;-57
2023/05/20 11:27:33;;;;;;;6.45;3.95;;;;;;;22.66;53.62;96453.63;2072683;28;20753;-58
2023/05/20 11:28:34;;;;;;;8.27;4.55;;;;;;;22.80;53.67;96447.81;2072300;28;20254;-58
2023/05/20 11:29:38;;;;;;;6.63;4.70;;;;;;;23.15;53.04;96446.16;2071226;28;20217;-58
2023/05/20 11:30:44;;;;;;;6.78;4.18;;;;;;;23.45;52.57;96452.09;2071984;28;20577;-59